Time;durP1;ratioP1;P1;durP2;ratioP2;P2;SDS_P1;SDS_P2;PMS_P1;PMS_P2;Temp;Humidity;BMP_temperature;BMP_pressure;BME280_temperature;BME280_humidity;BME280_pressure;Samples;Min_cycle;Max_cycle;Signal;HPM_P1;HPM_P2
2023/05/18 00:01:31;;;;;;;5.77;2.37;;;10.20;89.30;;;;;;5006955;28;20234;-72
2023/05/18 00:03:57;;;;;;;5.70;2.00;;;10.00;89.70;;;;;;5027967;28;20211;-71
2023/05/18 00:06:24;;;;;;;2.10;1.20;;;10.00;90.10;;;;;;5010798;28;20218;-72
2023/05/18 00:08:50;;;;;;;5.37;1.47;;;10.00;90.50;;;;;;5014425;28;20431;-71
2023/05/18 00:11:16;;;;;;;5.57;1.90;;;10.00;90.40;;;;;;5025784;28;20725;-73
2023/05/18 00:13:42;;;;;;;4.30;1.10;;;10.00;90.70;;;;;;5018504;28;20280;-73
2023/05/18 00:16:08;;;;;;;4.97;1.57;;;10.00;91.00;;;;;;5027518;28;20969;-72
2023/05/18 00:18:33;;;;;;;8.90;2.90;;;10.00;91.20;;;;;;5015137;28;20207;-70
2023/05/18 00:20:59;;;;;;;3.70;1.43;;;10.10;91.60;;;;;;5027291;28;20709;-68
2023/05/18 00:23:29;;;;;;;6.50;2.10;;;10.10;91.40;;;;;;5029445;28;20204;-67
2023/05/18 00:26:02;;;;;;;6.77;1.53;;;10.20;91.20;;;;;;5029195;28;20200;-67
2023/05/18 00:28:28;;;;;;;6.73;2.57;;;10.30;90.90;;;;;;5027816;28;20617;-74
2023/05/18 00:30:54;;;;;;;5.07;2.47;;;10.10;91.10;;;;;;5029885;28;20209;-73
2023/05/18 00:33:20;;;;;;;8.27;2.17;;;10.00;91.70;;;;;;5029791;28;20222;-74
2023/05/18 00:35:46;;;;;;;10.07;2.53;;;9.90;92.30;;;;;;5030082;28;20207;-73
2023/05/18 00:38:14;;;;;;;4.50;1.83;;;9.70;92.50;;;;;;5030440;28;20976;-75
2023/05/18 00:40:39;;;;;;;7.63;1.20;;;9.70;93.10;;;;;;5028777;28;20199;-77
2023/05/18 00:43:05;;;;;;;4.57;1.70;;;9.60;93.30;;;;;;5028336;28;20208;-70
2023/05/18 00:45:30;;;;;;;11.20;2.07;;;9.70;93.40;;;;;;5027687;28;20730;-71
2023/05/18 00:47:56;;;;;;;6.10;2.27;;;9.70;93.70;;;;;;5029371;28;20215;-71
2023/05/18 00:50:21;;;;;;;9.60;1.73;;;9.70;94.00;;;;;;5029038;28;20307;-71
2023/05/18 00:52:47;;;;;;;6.67;1.73;;;9.70;94.10;;;;;;5026949;28;20662;-72
2023/05/18 00:55:13;;;;;;;5.23;1.73;;;9.60;94.10;;;;;;5022107;28;20287;-72
2023/05/18 00:57:44;;;;;;;3.53;1.33;;;9.80;94.10;;;;;;5029799;28;20288;-73
2023/05/18 01:00:12;;;;;;;3.67;1.67;;;9.70;94.40;;;;;;5026462;28;21043;-71
2023/05/18 01:02:41;;;;;;;8.17;1.97;;;9.80;94.60;;;;;;5022312;28;20208;-70
2023/05/18 01:05:09;;;;;;;5.83;2.17;;;9.80;94.70;;;;;;5028639;28;20636;-69
2023/05/18 01:07:41;;;;;;;4.10;1.43;;;9.70;94.90;;;;;;5020288;28;20214;-69
2023/05/18 01:10:07;;;;;;;8.17;2.67;;;9.70;94.90;;;;;;5021988;28;20211;-69
2023/05/18 01:12:44;;;;;;;6.53;2.07;;;9.80;95.10;;;;;;5026944;28;20229;-70
2023/05/18 01:15:14;;;;;;;2.63;1.30;;;9.70;95.10;;;;;;5027363;28;20267;-69
2023/05/18 01:18:03;;;;;;;8.73;1.70;;;9.70;95.20;;;;;;5029454;28;20208;-70
2023/05/18 01:20:47;;;;;;;2.83;1.67;;;9.60;95.50;;;;;;5027836;28;20334;-69
2023/05/18 01:23:55;;;;;;;3.57;1.30;;;9.60;95.60;;;;;;5020616;28;20252;-70
2023/05/18 01:26:31;;;;;;;4.10;2.70;;;9.60;95.70;;;;;;5026370;28;20722;-69
2023/05/18 01:29:05;;;;;;;10.40;1.83;;;9.70;95.60;;;;;;5020079;28;20252;-70
2023/05/18 01:31:31;;;;;;;3.30;1.57;;;9.70;95.80;;;;;;5027806;28;20252;-69
2023/05/18 01:33:57;;;;;;;6.80;2.30;;;9.80;95.60;;;;;;5027763;28;20264;-69
2023/05/18 01:36:22;;;;;;;3.67;1.63;;;9.70;95.50;;;;;;5026714;28;20721;-72
2023/05/18 01:38:49;;;;;;;11.43;2.37;;;9.60;95.90;;;;;;5023074;28;20193;-71
2023/05/18 01:41:23;;;;;;;5.77;1.67;;;9.60;96.10;;;;;;5028352;28;20226;-74
2023/05/18 01:44:08;;;;;;;5.03;1.40;;;9.50;96.30;;;;;;5028347;28;20257;-71
2023/05/18 01:46:39;;;;;;;7.17;1.80;;;9.50;96.70;;;;;;5022708;28;20210;-71
2023/05/18 01:49:16;;;;;;;5.03;1.50;;;9.50;96.40;;;;;;5027033;28;20568;-70
2023/05/18 01:51:45;;;;;;;5.40;1.87;;;9.60;96.50;;;;;;5024494;28;20234;-75
2023/05/18 01:54:14;;;;;;;7.77;1.60;;;9.60;96.50;;;;;;5027790;28;20297;-72
2023/05/18 01:56:41;;;;;;;7.73;2.10;;;9.60;96.70;;;;;;5018120;28;20196;-71
2023/05/18 01:59:07;;;;;;;3.47;1.50;;;9.50;96.80;;;;;;5017101;28;20213;-71
2023/05/18 02:01:33;;;;;;;7.97;1.80;;;9.50;96.80;;;;;;5018131;28;20201;-71
2023/05/18 02:03:58;;;;;;;4.27;2.10;;;9.50;97.20;;;;;;5018175;28;20283;-72
2023/05/18 02:06:24;;;;;;;8.77;1.77;;;9.60;97.20;;;;;;5018652;28;20759;-68
2023/05/18 02:08:50;;;;;;;4.80;1.40;;;9.50;97.40;;;;;;5024742;28;20196;-65
2023/05/18 02:11:16;;;;;;;6.87;1.87;;;9.50;97.50;;;;;;5027948;28;20254;-65
2023/05/18 02:13:42;;;;;;;5.03;1.80;;;9.50;97.50;;;;;;5025750;28;20308;-65
2023/05/18 02:16:07;;;;;;;7.37;1.70;;;9.50;97.50;;;;;;5027373;28;20258;-65
2023/05/18 02:18:35;;;;;;;2.10;1.40;;;9.50;97.70;;;;;;5027524;28;20295;-64
2023/05/18 02:21:01;;;;;;;7.60;2.30;;;9.50;98.00;;;;;;5025619;28;20198;-65
2023/05/18 02:23:27;;;;;;;4.00;1.57;;;9.50;98.00;;;;;;5027978;28;20203;-65
2023/05/18 02:25:55;;;;;;;5.13;1.67;;;9.50;98.00;;;;;;5027859;28;20577;-64
2023/05/18 02:28:22;;;;;;;8.67;1.87;;;9.50;98.10;;;;;;5027791;28;20201;-64
2023/05/18 02:30:47;;;;;;;8.63;1.97;;;9.40;98.30;;;;;;5027191;28;20220;-64
2023/05/18 02:33:13;;;;;;;9.23;2.10;;;9.40;98.50;;;;;;5023066;28;20247;-65
2023/05/18 02:35:39;;;;;;;3.17;1.50;;;9.30;98.40;;;;;;5023023;28;20675;-64
2023/05/18 02:38:05;;;;;;;10.33;2.33;;;9.30;98.60;;;;;;5025392;28;20226;-64
2023/05/18 02:40:31;;;;;;;7.40;2.67;;;9.30;98.90;;;;;;5026874;28;20660;-64
2023/05/18 02:42:57;;;;;;;4.90;1.97;;;9.30;99.00;;;;;;5026932;28;20253;-64
2023/05/18 02:45:22;;;;;;;3.70;1.73;;;9.30;99.00;;;;;;5025354;28;20198;-64
2023/05/18 02:47:48;;;;;;;5.73;1.53;;;9.30;99.10;;;;;;5018538;28;20200;-64
2023/05/18 02:50:13;;;;;;;6.80;2.67;;;9.30;99.10;;;;;;5027673;28;20252;-64
2023/05/18 02:52:40;;;;;;;6.53;1.97;;;9.30;99.10;;;;;;5027891;28;20225;-64
2023/05/18 02:55:06;;;;;;;6.20;1.83;;;9.30;99.20;;;;;;5027021;28;20201;-65
2023/05/18 02:57:32;;;;;;;5.50;2.37;;;9.30;99.20;;;;;;5027286;28;20205;-65
2023/05/18 02:59:58;;;;;;;5.43;1.57;;;9.30;99.40;;;;;;5025053;28;20219;-64
2023/05/18 03:02:23;;;;;;;6.77;1.77;;;9.30;99.40;;;;;;5028575;28;20869;-65
2023/05/18 03:04:56;;;;;;;8.93;2.00;;;9.30;99.60;;;;;;5034654;28;20197;-65
2023/05/18 03:07:22;;;;;;;8.07;2.63;;;9.30;99.90;;;;;;5034747;28;20606;-65
2023/05/18 03:09:48;;;;;;;3.47;1.70;;;9.30;99.90;;;;;;5036302;28;20208;-64
2023/05/18 03:12:13;;;;;;;7.63;1.87;;;9.30;99.90;;;;;;5036301;28;20698;-64
2023/05/18 03:14:39;;;;;;;2.37;1.30;;;9.20;99.90;;;;;;5036736;28;20234;-64
2023/05/18 03:17:04;;;;;;;7.30;2.30;;;9.10;99.90;;;;;;5036649;28;20590;-65
2023/05/18 03:19:33;;;;;;;10.27;2.33;;;9.10;99.90;;;;;;5031041;28;20216;-65
2023/05/18 03:21:59;;;;;;;4.57;2.00;;;9.00;99.90;;;;;;5027827;28;20205;-65
2023/05/18 03:24:28;;;;;;;4.80;1.60;;;9.00;99.90;;;;;;5035118;28;20214;-65
2023/05/18 03:26:55;;;;;;;8.27;1.90;;;9.10;99.90;;;;;;5036870;28;20238;-65
2023/05/18 03:29:21;;;;;;;6.43;1.80;;;9.20;99.90;;;;;;5036190;28;20640;-66
2023/05/18 03:31:47;;;;;;;4.30;1.97;;;9.10;99.90;;;;;;5034191;28;20243;-64
2023/05/18 03:34:12;;;;;;;4.20;1.87;;;9.00;99.90;;;;;;5024534;28;20687;-64
2023/05/18 03:36:38;;;;;;;7.07;1.80;;;9.10;99.90;;;;;;5026925;28;20192;-64
2023/05/18 03:39:08;;;;;;;7.87;1.97;;;9.10;99.90;;;;;;5027174;28;20198;-65
2023/05/18 03:41:34;;;;;;;4.53;2.50;;;9.00;99.90;;;;;;5025323;28;20208;-66
2023/05/18 03:43:59;;;;;;;6.03;2.30;;;9.00;99.90;;;;;;5026340;28;20243;-68
2023/05/18 03:46:25;;;;;;;6.00;2.43;;;9.10;99.90;;;;;;5026689;28;20614;-64
2023/05/18 03:48:52;;;;;;;6.53;2.60;;;9.00;99.90;;;;;;5026373;28;20243;-64
2023/05/18 03:51:18;;;;;;;5.07;2.80;;;9.10;99.90;;;;;;5024888;28;20220;-64
2023/05/18 03:53:44;;;;;;;6.83;2.67;;;9.00;99.90;;;;;;5026608;28;20212;-64
2023/05/18 03:56:09;;;;;;;4.93;2.90;;;9.00;99.90;;;;;;5024714;28;20198;-65
2023/05/18 03:58:35;;;;;;;6.07;2.50;;;8.80;99.90;;;;;;5027435;28;20279;-64
2023/05/18 04:01:01;;;;;;;8.00;2.63;;;8.80;99.90;;;;;;5026696;28;20571;-65
2023/05/18 04:03:26;;;;;;;8.00;3.13;;;8.90;99.90;;;;;;5026760;28;20956;-64
2023/05/18 04:05:52;;;;;;;6.17;2.90;;;8.90;99.90;;;;;;5026847;28;20202;-65
2023/05/18 04:08:19;;;;;;;5.37;2.60;;;8.90;99.90;;;;;;5024429;28;20658;-66
2023/05/18 04:10:44;;;;;;;6.67;2.63;;;9.00;99.90;;;;;;5025409;28;20211;-64
2023/05/18 04:13:10;;;;;;;6.13;3.03;;;8.90;99.90;;;;;;5026127;28;20689;-65
2023/05/18 04:15:36;;;;;;;9.27;3.53;;;9.00;99.90;;;;;;5025891;28;20683;-65
2023/05/18 04:18:02;;;;;;;7.53;3.37;;;8.80;99.90;;;;;;5025056;28;20213;-64
2023/05/18 04:20:28;;;;;;;9.80;3.17;;;8.80;99.90;;;;;;5016908;28;20614;-64
2023/05/18 04:22:56;;;;;;;6.27;2.43;;;8.80;99.90;;;;;;5026500;28;20208;-64
2023/05/18 04:25:26;;;;;;;7.13;3.53;;;8.70;99.90;;;;;;5026458;28;20304;-64
2023/05/18 04:27:53;;;;;;;8.97;3.57;;;8.60;99.90;;;;;;5026071;28;20209;-64
2023/05/18 04:30:20;;;;;;;5.03;2.50;;;8.70;99.90;;;;;;5020924;28;20238;-64
2023/05/18 04:32:46;;;;;;;11.07;3.27;;;8.70;99.90;;;;;;5030104;28;20229;-64
2023/05/18 04:35:12;;;;;;;11.43;3.20;;;8.80;99.90;;;;;;5027108;28;20209;-64
2023/05/18 04:37:39;;;;;;;6.73;3.07;;;8.80;99.90;;;;;;5027469;28;20320;-65
2023/05/18 04:40:06;;;;;;;5.33;2.43;;;8.80;99.90;;;;;;5029699;28;20569;-64
2023/05/18 04:42:35;;;;;;;7.20;2.63;;;8.90;99.90;;;;;;5030222;28;20208;-65
2023/05/18 04:45:02;;;;;;;13.03;2.90;;;9.00;99.90;;;;;;5029834;28;20211;-64
2023/05/18 04:47:29;;;;;;;5.13;3.00;;;9.00;99.90;;;;;;5029267;28;20207;-68
2023/05/18 04:49:55;;;;;;;9.40;3.80;;;9.00;99.90;;;;;;5027680;28;20208;-65
2023/05/18 04:52:20;;;;;;;7.87;2.83;;;9.10;99.90;;;;;;5029043;28;20225;-65
2023/05/18 04:54:46;;;;;;;7.13;3.13;;;9.00;99.90;;;;;;5027251;28;20199;-64
2023/05/18 04:57:12;;;;;;;9.83;3.30;;;8.90;99.90;;;;;;5028899;28;20206;-64
2023/05/18 04:59:40;;;;;;;8.23;3.30;;;8.90;99.90;;;;;;5028593;28;20201;-64
2023/05/18 05:02:05;;;;;;;6.80;2.90;;;9.10;99.90;;;;;;5027213;28;20581;-65
2023/05/18 05:04:31;;;;;;;5.83;2.97;;;9.00;99.90;;;;;;5029380;28;20670;-64
2023/05/18 05:06:56;;;;;;;5.50;2.03;;;9.00;99.90;;;;;;5029206;28;20244;-64
2023/05/18 05:09:26;;;;;;;8.37;2.73;;;8.90;99.90;;;;;;5028118;28;20203;-64
2023/05/18 05:11:51;;;;;;;5.47;2.77;;;9.00;99.90;;;;;;5027218;28;20221;-64
2023/05/18 05:14:17;;;;;;;2.50;2.30;;;9.00;99.90;;;;;;5026725;28;20197;-64
2023/05/18 05:16:42;;;;;;;9.10;2.33;;;9.20;99.90;;;;;;5028862;28;20192;-64
2023/05/18 05:19:08;;;;;;;10.20;2.47;;;9.30;99.90;;;;;;5028100;28;20217;-64
2023/05/18 05:21:33;;;;;;;9.77;2.67;;;9.40;99.90;;;;;;5028139;28;20557;-64
2023/05/18 05:24:03;;;;;;;7.47;2.27;;;9.20;99.90;;;;;;5028364;28;20216;-64
2023/05/18 05:26:29;;;;;;;4.93;2.40;;;9.40;99.90;;;;;;5019865;28;20792;-64
2023/05/18 05:28:54;;;;;;;7.80;2.53;;;9.30;99.90;;;;;;5029369;28;20215;-65
2023/05/18 05:31:20;;;;;;;4.17;1.60;;;9.40;99.90;;;;;;5028634;28;20593;-64
2023/05/18 05:33:45;;;;;;;5.63;2.27;;;9.50;99.90;;;;;;5028901;28;20205;-64
2023/05/18 05:36:12;;;;;;;6.33;1.97;;;9.50;99.90;;;;;;5028494;28;20229;-64
2023/05/18 05:38:37;;;;;;;8.63;2.93;;;9.50;99.90;;;;;;5026902;28;20621;-64
2023/05/18 05:41:03;;;;;;;4.47;2.30;;;9.50;99.90;;;;;;5027815;28;20208;-64
2023/05/18 05:43:28;;;;;;;4.80;2.20;;;9.50;99.90;;;;;;5026384;28;20216;-63
2023/05/18 05:45:54;;;;;;;3.73;1.97;;;9.60;99.90;;;;;;5028107;28;20231;-64
2023/05/18 05:48:19;;;;;;;5.97;2.40;;;9.60;99.90;;;;;;5032202;28;20745;-64
2023/05/18 05:50:45;;;;;;;5.10;2.13;;;9.60;99.90;;;;;;5022249;28;20215;-65
2023/05/18 05:53:10;;;;;;;6.27;2.70;;;9.80;99.90;;;;;;5026687;28;20686;-64
2023/05/18 05:55:40;;;;;;;7.07;2.13;;;9.90;99.90;;;;;;5028246;28;20194;-64
2023/05/18 05:58:06;;;;;;;7.13;2.73;;;9.90;99.90;;;;;;5028389;28;20189;-64
2023/05/18 06:00:31;;;;;;;4.57;1.93;;;10.00;99.90;;;;;;5027793;28;20284;-65
2023/05/18 06:02:57;;;;;;;7.27;2.40;;;10.00;99.90;;;;;;5026048;28;20207;-65
2023/05/18 06:05:23;;;;;;;8.47;2.00;;;10.00;99.90;;;;;;5027532;28;20204;-64
2023/05/18 06:07:48;;;;;;;5.57;2.27;;;10.20;99.90;;;;;;5027550;28;20552;-64
2023/05/18 06:10:14;;;;;;;9.67;2.63;;;10.20;99.90;;;;;;5027585;28;20705;-64
2023/05/18 06:12:40;;;;;;;10.17;1.97;;;10.30;99.90;;;;;;5027331;28;20200;-64
2023/05/18 06:15:06;;;;;;;6.07;2.37;;;10.30;99.90;;;;;;5031614;28;20206;-64
2023/05/18 06:17:31;;;;;;;7.47;2.10;;;10.30;99.90;;;;;;5021848;28;20200;-65
2023/05/18 06:19:57;;;;;;;6.17;1.83;;;10.40;99.90;;;;;;5027991;28;20197;-64
2023/05/18 06:22:23;;;;;;;5.87;2.10;;;10.40;99.90;;;;;;5027976;28;20306;-63
2023/05/18 06:24:48;;;;;;;6.57;1.90;;;10.60;99.90;;;;;;5026228;28;20893;-65
2023/05/18 06:27:15;;;;;;;9.80;2.20;;;10.60;99.90;;;;;;5027683;28;20219;-64
2023/05/18 06:29:40;;;;;;;4.47;1.77;;;10.70;99.90;;;;;;5025224;28;20248;-64
2023/05/18 06:32:06;;;;;;;6.83;1.90;;;10.80;99.90;;;;;;5025597;28;20711;-64
2023/05/18 06:34:31;;;;;;;7.50;2.00;;;10.90;99.90;;;;;;5026860;28;20209;-64
2023/05/18 06:36:57;;;;;;;6.40;1.80;;;11.00;99.90;;;;;;5027224;28;20237;-64
2023/05/18 06:39:23;;;;;;;7.63;2.27;;;10.90;99.90;;;;;;5026806;28;20204;-65
2023/05/18 06:41:50;;;;;;;9.77;1.83;;;10.90;99.90;;;;;;5026814;28;20206;-64
2023/05/18 06:44:16;;;;;;;5.47;2.07;;;10.80;99.90;;;;;;5025259;28;20200;-64
2023/05/18 06:46:42;;;;;;;5.10;2.30;;;11.00;99.90;;;;;;5027571;28;20206;-64
2023/05/18 06:49:07;;;;;;;5.70;1.87;;;11.10;99.90;;;;;;5022630;28;20326;-64
2023/05/18 06:51:33;;;;;;;7.47;2.00;;;11.20;99.90;;;;;;5027388;28;20238;-64
2023/05/18 06:53:58;;;;;;;4.60;2.00;;;11.20;99.90;;;;;;5033692;28;20206;-66
2023/05/18 06:56:24;;;;;;;5.07;1.87;;;11.20;99.90;;;;;;5036525;28;20829;-65
2023/05/18 06:58:50;;;;;;;7.73;2.17;;;11.40;99.90;;;;;;5037034;28;20189;-65
2023/05/18 07:01:16;;;;;;;3.73;1.80;;;11.40;99.90;;;;;;5036721;28;20196;-65
2023/05/18 07:03:42;;;;;;;8.23;1.73;;;11.50;99.90;;;;;;5037108;28;20191;-65
2023/05/18 07:06:08;;;;;;;7.17;2.53;;;11.40;99.90;;;;;;5036811;28;20199;-65
2023/05/18 07:08:35;;;;;;;5.10;1.73;;;11.50;99.90;;;;;;5035211;28;20734;-65
2023/05/18 07:11:02;;;;;;;8.67;1.93;;;11.50;99.90;;;;;;5036757;28;20258;-65
2023/05/18 07:13:27;;;;;;;8.13;2.17;;;11.50;99.90;;;;;;5036673;28;20214;-65
2023/05/18 07:15:53;;;;;;;7.03;1.87;;;11.60;99.90;;;;;;5036408;28;20210;-64
2023/05/18 07:18:18;;;;;;;7.50;2.53;;;11.60;99.70;;;;;;5036861;28;20194;-64
2023/05/18 07:20:44;;;;;;;6.50;1.77;;;11.60;99.80;;;;;;5033314;28;20190;-64
2023/05/18 07:23:09;;;;;;;4.67;1.93;;;11.70;99.80;;;;;;5036386;28;20825;-63
2023/05/18 07:25:35;;;;;;;6.57;2.57;;;11.70;99.90;;;;;;5036661;28;20199;-64
2023/05/18 07:28:00;;;;;;;6.27;1.73;;;11.70;99.70;;;;;;5036526;28;20206;-64
2023/05/18 07:30:26;;;;;;;9.40;2.30;;;11.70;98.80;;;;;;5036385;28;20224;-64
2023/05/18 07:32:52;;;;;;;9.53;2.30;;;11.90;98.90;;;;;;5034512;28;20213;-64
2023/05/18 07:35:19;;;;;;;5.33;1.73;;;12.00;98.30;;;;;;5036711;28;20752;-65
2023/05/18 07:37:44;;;;;;;8.77;1.80;;;12.10;98.20;;;;;;5036131;28;20698;-75
2023/05/18 07:40:11;;;;;;;4.03;2.07;;;12.10;98.10;;;;;;5036069;28;20236;-65
2023/05/18 07:42:38;;;;;;;8.47;1.80;;;12.10;97.90;;;;;;5036287;28;20234;-66
2023/05/18 07:45:04;;;;;;;6.33;1.87;;;12.10;98.10;;;;;;5034367;28;20256;-65
2023/05/18 07:47:30;;;;;;;5.97;2.33;;;12.40;97.90;;;;;;5031648;28;20554;-64
2023/05/18 07:49:55;;;;;;;4.03;1.33;;;12.40;97.20;;;;;;5024724;28;20210;-65
2023/05/18 07:52:21;;;;;;;5.40;2.03;;;12.70;96.70;;;;;;5024463;28;20211;-66
2023/05/18 07:54:46;;;;;;;5.97;1.93;;;12.70;96.60;;;;;;5021063;28;20211;-65
2023/05/18 07:57:12;;;;;;;7.83;1.70;;;12.70;96.70;;;;;;5024149;28;20234;-64
2023/05/18 07:59:38;;;;;;;6.40;1.80;;;12.80;95.30;;;;;;5021223;28;20650;-64
2023/05/18 08:02:04;;;;;;;6.47;2.20;;;12.70;94.90;;;;;;5018335;28;20602;-64
2023/05/18 08:04:29;;;;;;;6.40;2.00;;;13.00;95.40;;;;;;5016591;28;20283;-73
2023/05/18 08:06:58;;;;;;;4.40;1.90;;;13.20;95.20;;;;;;5018558;28;20286;-73
2023/05/18 08:09:24;;;;;;;8.73;2.00;;;13.40;95.00;;;;;;5024105;28;20205;-72
2023/05/18 08:11:50;;;;;;;6.13;1.70;;;13.10;94.00;;;;;;5029039;28;20669;-73
2023/05/18 08:14:16;;;;;;;7.80;1.80;;;12.90;94.60;;;;;;5031552;28;20229;-74
2023/05/18 08:16:41;;;;;;;5.33;2.00;;;13.10;95.20;;;;;;5023358;28;20755;-73
2023/05/18 08:19:07;;;;;;;3.70;1.60;;;13.40;94.20;;;;;;5022881;28;20666;-73
2023/05/18 08:21:33;;;;;;;5.17;1.60;;;13.40;93.50;;;;;;5019877;28;20206;-72
2023/05/18 08:23:59;;;;;;;5.43;1.90;;;13.40;93.30;;;;;;5026604;28;20294;-73
2023/05/18 08:26:25;;;;;;;4.30;1.63;;;13.50;93.10;;;;;;5026719;28;20283;-73
2023/05/18 08:28:51;;;;;;;6.37;2.37;;;13.40;93.10;;;;;;5039340;28;20223;-73
2023/05/18 08:31:17;;;;;;;5.03;2.13;;;13.40;93.50;;;;;;5039471;28;20267;-73
2023/05/18 08:33:42;;;;;;;3.73;1.60;;;13.60;93.30;;;;;;5038635;28;20226;-74
2023/05/18 08:36:08;;;;;;;8.17;1.90;;;13.70;92.50;;;;;;5038656;28;20199;-76
2023/05/18 08:38:34;;;;;;;3.33;1.90;;;13.70;92.70;;;;;;5039501;28;20209;-75
2023/05/18 08:41:22;;;;;;;6.03;1.73;;;13.80;91.50;;;;;;5035853;28;20286;-70
2023/05/18 08:43:54;;;;;;;4.20;1.77;;;13.80;91.10;;;;;;5020504;28;20227;-70
2023/05/18 08:46:28;;;;;;;5.00;1.77;;;13.60;91.70;;;;;;5021522;28;20967;-68
2023/05/18 08:48:56;;;;;;;6.70;2.63;;;13.40;91.80;;;;;;5019644;28;20835;-69
2023/05/18 08:51:22;;;;;;;8.67;2.13;;;13.20;91.60;;;;;;5023636;28;20191;-70
2023/05/18 08:53:52;;;;;;;4.67;2.00;;;13.30;92.30;;;;;;5021896;28;20211;-69
2023/05/18 08:56:22;;;;;;;8.80;1.80;;;13.30;92.40;;;;;;5023804;28;20203;-68
2023/05/18 08:58:50;;;;;;;4.47;1.50;;;13.50;91.80;;;;;;5021728;28;20196;-72
2023/05/18 09:01:16;;;;;;;20.73;9.33;;;13.60;91.90;;;;;;5021812;28;20285;-72
2023/05/18 09:03:43;;;;;;;14.80;8.70;;;13.70;91.50;;;;;;5023896;28;20220;-71
2023/05/18 09:06:09;;;;;;;6.13;2.13;;;13.80;90.80;;;;;;5028006;28;20198;-72
2023/05/18 09:08:35;;;;;;;6.83;2.70;;;13.80;90.50;;;;;;5020358;28;20195;-73
2023/05/18 09:11:01;;;;;;;5.30;1.80;;;13.90;90.80;;;;;;5022118;28;20598;-71
2023/05/18 09:13:28;;;;;;;8.23;2.17;;;13.60;90.70;;;;;;5023700;28;20795;-73
2023/05/18 09:15:53;;;;;;;5.33;2.87;;;13.70;90.40;;;;;;5038533;28;20226;-76
2023/05/18 09:18:19;;;;;;;6.10;2.60;;;13.60;90.50;;;;;;5037517;28;20210;-71
2023/05/18 09:20:44;;;;;;;6.07;1.60;;;13.50;90.30;;;;;;5038255;28;20198;-69
2023/05/18 09:23:11;;;;;;;7.17;2.10;;;13.40;90.30;;;;;;5036515;28;20285;-70
2023/05/18 09:25:43;;;;;;;4.27;1.40;;;13.70;90.80;;;;;;5038240;28;20828;-69
2023/05/18 09:28:09;;;;;;;3.90;1.87;;;13.60;91.00;;;;;;5038135;28;20464;-69
2023/05/18 09:30:42;;;;;;;7.10;2.50;;;13.60;91.10;;;;;;5038000;28;20225;-70
2023/05/18 09:33:16;;;;;;;5.53;1.50;;;13.80;91.40;;;;;;5037895;28;20241;-70
2023/05/18 09:35:42;;;;;;;7.43;1.50;;;14.10;91.30;;;;;;5025714;28;20286;-70
2023/05/18 09:38:08;;;;;;;5.47;1.30;;;14.30;90.50;;;;;;5025193;28;20195;-70
2023/05/18 09:40:34;;;;;;;4.60;1.27;;;14.50;90.30;;;;;;5031509;28;20191;-71
2023/05/18 09:43:06;;;;;;;3.43;1.43;;;14.70;89.50;;;;;;5027097;28;20203;-70
2023/05/18 09:45:31;;;;;;;6.43;1.77;;;14.80;90.30;;;;;;5026387;28;20203;-69
2023/05/18 09:47:57;;;;;;;3.37;1.33;;;15.00;90.00;;;;;;5028541;28;20244;-70
2023/05/18 09:50:23;;;;;;;4.70;1.70;;;15.20;90.00;;;;;;5024305;28;20195;-73
2023/05/18 09:52:49;;;;;;;8.10;1.50;;;15.30;88.20;;;;;;5025471;28;20218;-72
2023/05/18 09:55:16;;;;;;;4.37;1.83;;;15.40;85.60;;;;;;5027957;28;20206;-72
2023/05/18 09:57:44;;;;;;;6.23;1.80;;;15.70;84.30;;;;;;5019497;28;20199;-73
2023/05/18 10:00:11;;;;;;;7.03;1.77;;;15.50;84.80;;;;;;5017236;28;20195;-68
2023/05/18 10:02:42;;;;;;;5.17;1.43;;;15.60;86.00;;;;;;5017932;28;20199;-69
2023/05/18 10:05:32;;;;;;;5.30;1.40;;;15.70;85.40;;;;;;5017319;28;20666;-69
2023/05/18 10:07:58;;;;;;;3.80;1.10;;;15.60;81.90;;;;;;5017340;28;20266;-70
2023/05/18 10:10:26;;;;;;;3.47;1.20;;;15.60;85.10;;;;;;5027031;28;20960;-69
2023/05/18 10:12:54;;;;;;;6.57;1.47;;;15.70;82.30;;;;;;5028710;28;20215;-70
2023/05/18 10:15:21;;;;;;;7.87;2.03;;;15.70;81.80;;;;;;5024705;28;20235;-70
2023/05/18 10:17:47;;;;;;;6.10;1.87;;;15.70;82.70;;;;;;5025358;28;20985;-73
2023/05/18 10:20:23;;;;;;;3.03;1.53;;;15.70;80.60;;;;;;5024108;28;20203;-71
2023/05/18 10:22:49;;;;;;;5.37;2.00;;;15.80;82.70;;;;;;5031007;28;20691;-70
2023/05/18 10:25:19;;;;;;;5.10;1.57;;;16.00;82.40;;;;;;5037244;28;20209;-70
2023/05/18 10:27:47;;;;;;;1.83;1.47;;;16.50;82.00;;;;;;5037392;28;20194;-71
2023/05/18 10:30:13;;;;;;;5.70;1.60;;;16.50;77.10;;;;;;5036895;28;20701;-70
2023/05/18 10:32:41;;;;;;;6.73;1.70;;;16.00;81.30;;;;;;5037540;28;20210;-73
2023/05/18 10:35:08;;;;;;;2.53;0.90;;;16.20;77.80;;;;;;5035262;28;20202;-68
2023/05/18 10:37:36;;;;;;;5.20;1.80;;;16.20;78.00;;;;;;5024097;28;20233;-69
2023/05/18 10:40:02;;;;;;;5.93;1.60;;;16.10;77.10;;;;;;5023919;28;20573;-68
2023/05/18 10:42:30;;;;;;;3.60;1.40;;;16.00;76.30;;;;;;5034615;28;20268;-69
2023/05/18 10:44:56;;;;;;;2.63;1.47;;;15.80;75.20;;;;;;5024849;28;20195;-74
2023/05/18 10:47:24;;;;;;;3.50;1.30;;;15.80;74.60;;;;;;5037085;28;20195;-73
2023/05/18 10:49:50;;;;;;;5.93;1.50;;;15.60;75.30;;;;;;5035930;28;20255;-70
2023/05/18 10:52:16;;;;;;;3.90;1.60;;;15.60;75.70;;;;;;5036574;28;20221;-69
2023/05/18 10:54:42;;;;;;;2.63;1.53;;;15.80;76.20;;;;;;5036395;28;20282;-69
2023/05/18 10:57:18;;;;;;;4.10;1.73;;;15.90;77.50;;;;;;5035583;28;20294;-70
2023/05/18 10:59:46;;;;;;;5.20;1.60;;;16.40;80.50;;;;;;5034455;28;20285;-69
2023/05/18 11:02:15;;;;;;;4.17;1.27;;;16.60;74.50;;;;;;5024213;28;20604;-73
2023/05/18 11:04:41;;;;;;;2.93;2.00;;;16.90;75.30;;;;;;5024582;28;20206;-71
2023/05/18 11:07:11;;;;;;;3.10;1.50;;;17.30;74.90;;;;;;5026094;28;20806;-72
2023/05/18 11:09:40;;;;;;;4.53;2.03;;;17.10;73.20;;;;;;5023842;28;20203;-71
2023/05/18 11:12:11;;;;;;;5.40;1.90;;;17.00;72.30;;;;;;5026331;28;20920;-72
2023/05/18 11:14:47;;;;;;;3.80;1.60;;;17.10;70.50;;;;;;5018841;28;20322;-70
2023/05/18 11:17:24;;;;;;;2.80;1.47;;;17.10;70.80;;;;;;5026689;28;20233;-72
2023/05/18 11:20:07;;;;;;;3.47;1.23;;;17.80;72.50;;;;;;5034977;28;20202;-70
2023/05/18 11:22:50;;;;;;;3.20;1.73;;;18.30;69.20;;;;;;5032285;28;20244;-75
2023/05/18 11:25:24;;;;;;;2.43;1.20;;;18.30;67.50;;;;;;5035181;28;20256;-72
2023/05/18 11:27:55;;;;;;;6.93;1.40;;;17.50;66.40;;;;;;5015743;28;20199;-71
2023/05/18 11:30:41;;;;;;;5.43;1.63;;;17.70;69.60;;;;;;5036030;28;20238;-72
2023/05/18 11:33:12;;;;;;;4.13;1.40;;;18.20;65.90;;;;;;5020626;28;20230;-72
2023/05/18 11:35:57;;;;;;;6.40;1.30;;;18.20;67.80;;;;;;5023130;28;20600;-72
2023/05/18 11:38:44;;;;;;;7.33;1.43;;;17.80;66.90;;;;;;5015460;28;20215;-71
2023/05/18 11:41:29;;;;;;;3.63;1.30;;;17.50;67.60;;;;;;5029453;28;20206;-71
2023/05/18 11:44:19;;;;;;;3.20;1.40;;;17.40;66.00;;;;;;5040052;28;20206;-71
2023/05/18 11:46:52;;;;;;;6.70;2.07;;;17.30;66.30;;;;;;5028548;28;20210;-71
2023/05/18 11:49:20;;;;;;;3.10;1.30;;;17.10;63.70;;;;;;5025055;28;20989;-71
2023/05/18 11:52:07;;;;;;;6.83;1.87;;;17.00;67.20;;;;;;5020519;28;20697;-71
2023/05/18 11:54:40;;;;;;;6.70;2.03;;;17.40;66.00;;;;;;5038617;28;20209;-70
2023/05/18 11:57:06;;;;;;;4.60;1.67;;;17.90;65.60;;;;;;5033185;28;20214;-69
2023/05/18 11:59:56;;;;;;;5.13;1.80;;;18.50;64.70;;;;;;5038445;28;20195;-75
2023/05/18 12:02:32;;;;;;;8.27;1.70;;;18.50;65.00;;;;;;5031789;28;20216;-73
2023/05/18 12:04:59;;;;;;;3.03;1.57;;;18.40;67.00;;;;;;5038810;28;20200;-70
2023/05/18 12:07:27;;;;;;;4.10;1.93;;;18.10;64.80;;;;;;5039492;28;20215;-71
2023/05/18 12:10:00;;;;;;;3.83;1.30;;;17.80;66.00;;;;;;5039593;28;20472;-71
2023/05/18 12:12:27;;;;;;;7.73;3.37;;;17.80;64.40;;;;;;5039366;28;20231;-71
2023/05/18 12:14:57;;;;;;;3.57;2.07;;;17.80;65.90;;;;;;5038654;28;20269;-71
2023/05/18 12:17:42;;;;;;;1.73;1.40;;;17.70;64.60;;;;;;5039459;28;20532;-75
2023/05/18 12:20:11;;;;;;;4.50;1.43;;;17.70;64.20;;;;;;5029560;28;20238;-71
2023/05/18 12:22:38;;;;;;;1.93;1.50;;;18.10;64.40;;;;;;5024493;28;20852;-71
2023/05/18 12:25:04;;;;;;;3.00;1.47;;;18.50;64.50;;;;;;5030602;28;20243;-72
2023/05/18 12:27:29;;;;;;;4.27;1.40;;;18.50;65.60;;;;;;5025945;28;20234;-72
2023/05/18 12:29:55;;;;;;;4.30;1.77;;;18.10;63.90;;;;;;5027950;28;21596;-71
2023/05/18 12:32:20;;;;;;;4.87;1.90;;;18.20;63.50;;;;;;5028018;28;20219;-73
2023/05/18 12:34:46;;;;;;;6.83;1.80;;;18.10;65.60;;;;;;5033522;28;20203;-71
2023/05/18 12:37:11;;;;;;;8.13;2.90;;;18.10;65.30;;;;;;5026204;28;20729;-73
2023/05/18 12:39:37;;;;;;;3.43;2.17;;;18.20;65.50;;;;;;5028700;28;20199;-75
2023/05/18 12:42:13;;;;;;;2.33;1.60;;;18.30;63.50;;;;;;5025960;28;20213;-78
2023/05/18 12:44:42;;;;;;;4.33;1.47;;;18.30;64.60;;;;;;5025413;28;20258;-73
2023/05/18 12:47:09;;;;;;;5.20;1.93;;;18.20;62.10;;;;;;5028442;28;20234;-72
2023/05/18 12:49:39;;;;;;;9.07;4.40;;;18.30;64.60;;;;;;5025663;28;20375;-71
2023/05/18 12:52:10;;;;;;;8.20;3.73;;;18.80;63.30;;;;;;5027570;28;20730;-72
2023/05/18 12:54:48;;;;;;;5.83;3.27;;;18.90;64.50;;;;;;5024415;28;20188;-73